»·PEaware :: LMG337 KLWC-KLAS

LMG337 :: KLWC-KLAS

FLIGHT INFORMATION

Flight Status: Arrived
Operator: Unknown
More flights by this operator :: More flights under this callsign
Pilot: Alan J. (5709)
Aircraft: NORD TRANSALL C-160
(C160)
More flights by this aircraft type
Origin: KLWC Lawrence Mun
United States
Destination: KLAS McCarran Intl
United States
More flights between these airports :: More routes between these airports
Route: SLN J24 HGO DVC GRNPA2
File this flight plan on PilotEdge
Remarks: Transall C160 2T / M ZLA Coverage Only
Altitude:
(Current/Filed)
24,000ft
Speed:
(Current/Filed)
300kts
Departed: 14-Jun-18 09:37 PM
Arrived: 14-Jun-18 10:24 PM
Distance/Time
Traveled:
962nm/0:47
Distance/Time
To Go:
Arrived

Flight Plot

Page will automatically refresh every two minutes.

Flight plan parsing failed; only flown route is shown


Map Options




Map Legend


Flown Route
Filed Route
Departure Airport
Arrival Airport
Navaid (VOR, NDB)
Fix

Horizontal Profiles

Position Reports

Time Latitude Longitude Heading Altitude Ground
Speed
14-Jun-18 21:36 36.872686 -112.536214 268 24059ft 299kts
14-Jun-18 21:37 36.871040 -112.640590 265 24022ft 303kts
14-Jun-18 21:38 36.866543 -112.745498 264 24008ft 302kts
14-Jun-18 21:39 36.860872 -112.850194 264 24006ft 302kts
14-Jun-18 21:40 36.854824 -112.955129 264 24005ft 302kts
14-Jun-18 21:41 36.848609 -113.059666 264 24017ft 302kts
14-Jun-18 21:42 36.842263 -113.164662 264 24025ft 303kts
14-Jun-18 21:43 36.835846 -113.269443 264 24014ft 303kts
14-Jun-18 21:44 36.829363 -113.374158 264 24024ft 303kts
14-Jun-18 21:45 36.822725 -113.479294 263 24017ft 303kts
14-Jun-18 21:46 36.799693 -113.578422 244 23488ft 303kts
14-Jun-18 21:47 36.759867 -113.674663 241 21824ft 318kts
14-Jun-18 21:48 36.716770 -113.771543 240 20210ft 317kts
14-Jun-18 21:49 36.673904 -113.866824 240 18612ft 313kts
14-Jun-18 21:50 36.631468 -113.960816 240 17014ft 310kts
14-Jun-18 21:51 36.589254 -114.054154 240 15412ft 305kts
14-Jun-18 21:52 36.548039 -114.144872 239 13814ft 298kts
14-Jun-18 21:53 36.507571 -114.233723 239 12215ft 293kts
14-Jun-18 21:54 36.469055 -114.318071 239 11812ft 266kts
14-Jun-18 21:55 36.433311 -114.396041 239 11784ft 256kts
14-Jun-18 21:56 36.394590 -114.468828 217 11613ft 258kts
14-Jun-18 21:57 36.324688 -114.499755 193 10833ft 269kts
14-Jun-18 21:58 36.256116 -114.530548 216 10084ft 272kts
14-Jun-18 21:59 36.201223 -114.596339 226 9023ft 266kts
14-Jun-18 22:00 36.164847 -114.671638 248 9013ft 253kts
14-Jun-18 22:01 36.148165 -114.755522 256 9007ft 251kts
14-Jun-18 22:02 36.139373 -114.842766 251 8938ft 257kts
14-Jun-18 22:03 36.097038 -114.914357 227 8339ft 262kts
14-Jun-18 22:04 36.043540 -114.975074 220 7991ft 256kts
14-Jun-18 22:05 35.990216 -115.031541 223 7846ft 254kts
14-Jun-18 22:06 35.938670 -115.094291 225 7181ft 255kts
14-Jun-18 22:07 35.889324 -115.154897 225 7088ft 246kts
14-Jun-18 22:08 35.845099 -115.208866 225 7156ft 180kts
14-Jun-18 22:09 35.814529 -115.257729 260 7103ft 185kts
14-Jun-18 22:10 35.775261 -115.282268 174 7096ft 192kts
14-Jun-18 22:11 35.723864 -115.264076 137 7082ft 203kts
14-Jun-18 22:12 35.742872 -115.209759 1 7089ft 210kts
14-Jun-18 22:13 35.795013 -115.235765 329 7087ft 205kts
14-Jun-18 22:14 35.853585 -115.235120 11 6497ft 201kts
14-Jun-18 22:15 35.904569 -115.217583 11 5632ft 188kts
14-Jun-18 22:16 35.954726 -115.201197 11 4630ft 184kts
14-Jun-18 22:17 36.001873 -115.185685 11 4258ft 164kts
14-Jun-18 22:18 36.044591 -115.165726 18 4208ft 178kts
14-Jun-18 22:19 36.085335 -115.138512 34 3651ft 157kts
14-Jun-18 22:20 36.118609 -115.106561 34 3079ft 145kts
14-Jun-18 22:21 36.137674 -115.120259 236 2832ft 121kts
14-Jun-18 22:22 36.113535 -115.147981 213 2558ft 113kts
14-Jun-18 22:23 36.088457 -115.162722 204 2188ft 49kts
14-Jun-18 22:24 36.081612 -115.165475 108 2188ft 0kts
14-Jun-18 22:25 36.081611 -115.165472 108 2188ft 0kts
14-Jun-18 22:26 36.081537 -115.165144 103 2188ft 3kts
14-Jun-18 22:27 36.081508 -115.164876 95 2188ft 3kts
14-Jun-18 22:28 36.081505 -115.161656 89 2188ft 12kts
14-Jun-18 22:29 36.081514 -115.159238 91 2188ft 19kts
14-Jun-18 22:30 36.081501 -115.158229 91 2188ft 19kts
14-Jun-18 22:31 36.081461 -115.154656 92 2188ft 6kts
14-Jun-18 22:32 36.081150 -115.151078 91 2188ft 12kts
14-Jun-18 22:33 36.081857 -115.149176 158 2188ft 10kts
14-Jun-18 22:34 36.081779 -115.148142 63 2188ft 3kts
14-Jun-18 22:35 36.081795 -115.148102 62 2188ft 0kts
14-Jun-18 22:36 36.081796 -115.148100 62 2188ft 0kts
14-Jun-18 22:37 36.081796 -115.148100 62 2188ft 0kts

Navigation Log

Ident Type
Flight plan parsing failed, navigation log unavailable